Ellen S Bouchard — WRA5918 — position and weather

sailwx.info

Track history (hours):
 
Tides and Currents Weather Stations Pressure Air Temp Water Temp Dewpoint Dewpoint Depression Visibility Wind Speed Wind Dir Waves Ship Positions

Ellen S Bouchard

Owner: BOUCHARD TRANSPORTATION CO, MELVILLE, NY. More information available from US FCC via Universal Licensing System and Coast Guard Vessel Documentation Center.

Last reported at 2018-Jun-22 17:00 UTC. Time now 2018-Jun-22 16:59 UTC.
Position N 40°40' W 074°02'.

Length 148 m; draft 5 m.

Type: . MMSI: 367006570.

Date/timePositionNaut miles runAvg speedWind from/ knotsBaromVisibWave heightAir tempDewpointWater temp
2018-Jun-22 17:00N 40°40' W 074°02'0 0.0
2018-Jun-22 16:30N 40°40' W 074°02'0 0.0
2018-Jun-22 16:00N 40°40' W 074°02'0 0.0
2018-Jun-22 15:30N 40°40' W 074°02'0 0.0
2018-Jun-22 15:00N 40°40' W 074°02'0 0.0
2018-Jun-22 14:30N 40°40' W 074°02'0 0.0
2018-Jun-22 14:00N 40°40' W 074°02'0 0.4
2018-Jun-22 13:30N 40°40' W 074°02'4 1.8
2018-Jun-22 11:24N 40°39' W 074°07'0 0.0
2018-Jun-22 09:18N 40°39' W 074°07'0 0.0
2018-Jun-22 06:22N 40°39' W 074°07'1 1.6
2018-Jun-22 06:00N 40°39' W 074°07'0 0.0
2018-Jun-22 05:30N 40°39' W 074°07'0 0.0
2018-Jun-22 05:00N 40°39' W 074°07'0 0.0
2018-Jun-22 04:30N 40°39' W 074°07'0 0.0
2018-Jun-22 03:54N 40°39' W 074°07'0 0.0
2018-Jun-22 03:30N 40°39' W 074°07'0 0.0
2018-Jun-22 03:00N 40°39' W 074°07'0 0.0
2018-Jun-22 02:30N 40°39' W 074°07'0 0.0
2018-Jun-22 02:00N 40°39' W 074°07'0 0.3
2018-Jun-22 01:30N 40°39' W 074°07'  
2018-Jun-19 09:27N 42°17' W 070°29'4 9.0
2018-Jun-19 09:00N 42°21' W 070°29'4 8.8
2018-Jun-19 08:30N 42°25' W 070°28'4 8.8
2018-Jun-19 08:00N 42°30' W 070°28'4 8.7
2018-Jun-19 07:30N 42°34' W 070°28'4 8.8
2018-Jun-19 07:00N 42°39' W 070°27'4 8.6
2018-Jun-19 06:30N 42°43' W 070°29'4 8.6
2018-Jun-19 06:00N 42°47' W 070°27'39 8.2
2018-Jun-19 01:18N 43°24' W 070°11'2 8.2
2018-Jun-19 01:00N 43°26' W 070°10'4 8.4
2018-Jun-19 00:30N 43°30' W 070°08'4 8.0
2018-Jun-19 00:00N 43°34' W 070°09'4 8.7
2018-Jun-18 23:30N 43°37' W 070°12'2 5.0
2018-Jun-18 23:00N 43°39' W 070°14'0 0.0
2018-Jun-18 22:30N 43°39' W 070°14'0 0.0
2018-Jun-18 22:00N 43°39' W 070°14'0 0.0
2018-Jun-18 21:30N 43°39' W 070°14'0 0.0
2018-Jun-18 21:00N 43°39' W 070°14'0 0.0
2018-Jun-18 19:45N 43°39' W 070°14'0 0.0
2018-Jun-18 19:29N 43°39' W 070°14'0 0.0
2018-Jun-18 19:00N 43°39' W 070°14'0 0.0
2018-Jun-18 18:30N 43°39' W 070°14'0 0.0
2018-Jun-18 18:00N 43°39' W 070°14'0 0.0
2018-Jun-18 17:30N 43°39' W 070°14'0 0.0
2018-Jun-18 17:00N 43°39' W 070°14'0 0.0
2018-Jun-18 16:30N 43°39' W 070°14'0 0.0
2018-Jun-18 16:00N 43°39' W 070°14'0 0.0
2018-Jun-18 15:30N 43°39' W 070°14'0 0.0
2018-Jun-18 15:00N 43°39' W 070°14'0 0.0
2018-Jun-18 14:30N 43°39' W 070°14'0 0.0
2018-Jun-18 14:00N 43°39' W 070°14'0 0.0
2018-Jun-18 13:30N 43°39' W 070°14'0 0.0
2018-Jun-18 13:00N 43°39' W 070°14'0 0.0
2018-Jun-18 12:30N 43°39' W 070°14'0 0.0
2018-Jun-18 12:00N 43°39' W 070°14'0 0.0
2018-Jun-18 11:30N 43°39' W 070°14'0 0.0
2018-Jun-18 11:00N 43°39' W 070°14'0 0.0
2018-Jun-18 10:30N 43°39' W 070°14'0 0.0
2018-Jun-18 10:00N 43°39' W 070°14'0 0.0
2018-Jun-18 09:30N 43°39' W 070°14'0 0.0
2018-Jun-18 09:00N 43°39' W 070°14'0 0.0
2018-Jun-18 08:30N 43°39' W 070°14'0 0.0
2018-Jun-18 08:00N 43°39' W 070°14'0 0.0
2018-Jun-18 07:30N 43°39' W 070°14'0 0.0
2018-Jun-18 07:00N 43°39' W 070°14'1 1.8
2018-Jun-18 06:30N 43°39' W 070°13'4 8.1
2018-Jun-18 06:00N 43°36' W 070°10'4 7.9
2018-Jun-18 05:30N 43°32' W 070°08'4 7.9
2018-Jun-18 04:59N 43°28' W 070°09'4 8.0
2018-Jun-18 04:30N 43°24' W 070°10'20 8.3
2018-Jun-18 02:05N 43°05' W 070°16'1 8.4
2018-Jun-18 01:58N 43°04' W 070°16'4 8.4
2018-Jun-18 01:30N 43°00' W 070°18'4 8.4
2018-Jun-18 00:59N 42°56' W 070°19'4 8.1
2018-Jun-18 00:30N 42°52' W 070°20'4 7.8
2018-Jun-18 00:00N 42°48' W 070°22'4 7.9
2018-Jun-17 23:30N 42°44' W 070°23'4 8.2
2018-Jun-17 23:00N 42°40' W 070°24'4 8.2
2018-Jun-17 22:30N 42°36' W 070°25'4 8.4
2018-Jun-17 22:00N 42°32' W 070°25'4 8.5
2018-Jun-17 21:30N 42°28' W 070°25'4 8.5
2018-Jun-17 21:00N 42°24' W 070°26'4 8.4
2018-Jun-17 20:30N 42°19' W 070°26'4 8.5
2018-Jun-17 20:00N 42°15' W 070°26'4 8.1
2018-Jun-17 19:30N 42°11' W 070°26'4 8.0
2018-Jun-17 19:00N 42°07' W 070°26'9 8.1
2018-Jun-17 17:55N 41°58' W 070°27'182 7.5
2018-Jun-16 17:34N 40°34' W 074°02'2 8.9
2018-Jun-16 17:20N 40°36' W 074°03'3 8.5
2018-Jun-16 17:00N 40°39' W 074°04'5 8.4
2018-Jun-16 16:24N 40°39' W 074°10'1 0.2
2018-Jun-16 13:36N 40°39' W 074°11'1 7.4
2018-Jun-16 13:30N 40°39' W 074°10'2 1.8
2018-Jun-16 12:12N 40°39' W 074°07'0 0.0
2018-Jun-16 11:10N 40°39' W 074°07'0 0.1
2018-Jun-16 10:59N 40°39' W 074°07'0 0.0
2018-Jun-16 10:27N 40°39' W 074°07'0 0.0
2018-Jun-16 10:00N 40°39' W 074°07'0 0.0
2018-Jun-16 00:19N 40°39' W 074°07'0 0.5
2018-Jun-16 00:00N 40°39' W 074°07'3 6.0
2018-Jun-15 23:30N 40°39' W 074°11'8 0.9
2018-Jun-15 13:44N 40°34' W 074°02'1 2.4
2018-Jun-15 13:24N 40°35' W 074°02'1 3.1
2018-Jun-15 13:00N 40°36' W 074°03'1 2.4
2018-Jun-15 12:29N 40°37' W 074°03'2 3.3
2018-Jun-15 12:00N 40°39' W 074°03'1 2.1
2018-Jun-15 11:30N 40°40' W 074°02'0 0.2
2018-Jun-15 11:00N 40°40' W 074°02'2 4.2
2018-Jun-15 10:30N 40°41' W 074°00'3 6.3
2018-Jun-15 10:00N 40°44' W 073°58'60 7.5
2018-Jun-15 02:01N 41°06' W 072°44'0 9.5
2018-Jun-15 02:00N 41°06' W 072°44'5 9.7
2018-Jun-15 01:30N 41°07' W 072°38'510.5
2018-Jun-15 01:00N 41°09' W 072°31'610.9
2018-Jun-15 00:30N 41°10' W 072°24'610.0
2018-Jun-14 23:54N 41°12' W 072°16'96 3.8
2018-Jun-13 22:29N 42°16' W 070°40'4 8.4
2018-Jun-13 22:00N 42°18' W 070°44'4 8.5
2018-Jun-13 21:30N 42°21' W 070°48'4 8.1
2018-Jun-13 21:00N 42°23' W 070°53'4 9.0
2018-Jun-13 20:30N 42°20' W 070°58'4 8.3
2018-Jun-13 20:00N 42°22' W 071°03'2 3.4
2018-Jun-13 19:30N 42°23' W 071°01'0 0.4
2018-Jun-13 19:01N 42°24' W 071°01'1 1.9
2018-Jun-13 18:30N 42°23' W 071°02'0 0.8
2018-Jun-13 18:00N 42°23' W 071°03'0 0.0
2018-Jun-13 17:30N 42°23' W 071°03'0 0.0
2018-Jun-13 17:00N 42°23' W 071°03'0 0.0
2018-Jun-13 16:30N 42°23' W 071°03'0 0.0
2018-Jun-13 16:00N 42°23' W 071°03'0 0.0
2018-Jun-13 15:30N 42°23' W 071°03'0 0.0
2018-Jun-13 15:00N 42°23' W 071°03'0 0.0
2018-Jun-13 14:30N 42°23' W 071°03'0 0.0
2018-Jun-13 14:00N 42°23' W 071°03'0 0.0
2018-Jun-13 13:30N 42°23' W 071°03'0 0.5
2018-Jun-13 13:00N 42°23' W 071°03'1 2.5
2018-Jun-13 12:30N 42°24' W 071°01'0 1.0
2018-Jun-13 12:00N 42°23' W 071°01'1 2.7
2018-Jun-13 11:30N 42°22' W 071°03'1 1.9
2018-Jun-13 11:00N 42°22' W 071°02'0 0.0
2018-Jun-13 10:30N 42°22' W 071°02'0 0.1
2018-Jun-13 10:00N 42°22' W 071°02'0 0.0
2018-Jun-13 09:30N 42°22' W 071°02'0 0.1
2018-Jun-13 09:00N 42°22' W 071°02'0 0.0
2018-Jun-13 08:30N 42°22' W 071°02'0 0.0
2018-Jun-13 08:00N 42°22' W 071°02'0 0.0
2018-Jun-13 07:30N 42°22' W 071°02'0 0.0
2018-Jun-13 07:00N 42°22' W 071°02'0 0.0
2018-Jun-13 06:30N 42°22' W 071°02'0 0.0
2018-Jun-13 06:00N 42°22' W 071°02'0 0.0
2018-Jun-13 05:30N 42°22' W 071°02'0 0.0
2018-Jun-13 05:00N 42°22' W 071°02'0 0.0
2018-Jun-13 04:30N 42°22' W 071°02'0 0.0
2018-Jun-13 04:01N 42°22' W 071°02'0 0.1
2018-Jun-13 03:30N 42°22' W 071°02'0 0.0
2018-Jun-13 03:00N 42°22' W 071°02'0 0.0
2018-Jun-13 02:30N 42°22' W 071°02'0 0.0
2018-Jun-13 02:00N 42°22' W 071°02'0 0.0
2018-Jun-13 01:30N 42°22' W 071°02'0 0.0
2018-Jun-13 01:00N 42°22' W 071°02'0 0.0
2018-Jun-13 00:30N 42°22' W 071°02'0 0.0
2018-Jun-13 00:00N 42°22' W 071°02'0 0.0
2018-Jun-12 23:30N 42°22' W 071°02'0 0.1
2018-Jun-12 23:00N 42°22' W 071°02'0 0.1
2018-Jun-12 22:31N 42°22' W 071°02'0 0.0
2018-Jun-12 22:00N 42°22' W 071°02'0 0.0
2018-Jun-12 21:30N 42°22' W 071°02'0 0.0
2018-Jun-12 21:00N 42°22' W 071°02'0 0.1
2018-Jun-12 20:30N 42°22' W 071°02'0 0.1
2018-Jun-12 20:00N 42°22' W 071°02'0 0.0
2018-Jun-12 19:30N 42°22' W 071°02'0 0.0
2018-Jun-12 19:00N 42°22' W 071°02'0 0.0
2018-Jun-12 18:30N 42°22' W 071°02'0 0.0
2018-Jun-12 18:00N 42°22' W 071°02'0 0.0
2018-Jun-12 17:30N 42°22' W 071°02'0 0.0
2018-Jun-12 17:00N 42°22' W 071°02'  
Track history (hours):
 
Tides and Currents Weather Stations Pressure Air Temp Water Temp Dewpoint Dewpoint Depression Visibility Wind Speed Wind Dir Waves Ship Positions

Ellen S Bouchard

Owner: BOUCHARD TRANSPORTATION CO, MELVILLE, NY. More information available from US FCC via Universal Licensing System and Coast Guard Vessel Documentation Center.

Last reported at 2018-Jun-22 17:00 UTC. Time now 2018-Jun-22 16:59 UTC.
Position N 40°40' W 074°02'.

Length 148 m; draft 5 m.

Type: . MMSI: 367006570.

Date/timePositionNaut miles runAvg speedWind from/ knotsBaromVisibWave heightAir tempDewpointWater temp
2018-Jun-22 17:00N 40°40' W 074°02'0 0.0
2018-Jun-22 16:30N 40°40' W 074°02'0 0.0
2018-Jun-22 16:00N 40°40' W 074°02'0 0.0
2018-Jun-22 15:30N 40°40' W 074°02'0 0.0
2018-Jun-22 15:00N 40°40' W 074°02'0 0.0
2018-Jun-22 14:30N 40°40' W 074°02'0 0.0
2018-Jun-22 14:00N 40°40' W 074°02'0 0.4
2018-Jun-22 13:30N 40°40' W 074°02'4 1.8
2018-Jun-22 11:24N 40°39' W 074°07'0 0.0
2018-Jun-22 09:18N 40°39' W 074°07'0 0.0
2018-Jun-22 06:22N 40°39' W 074°07'1 1.6
2018-Jun-22 06:00N 40°39' W 074°07'0 0.0
2018-Jun-22 05:30N 40°39' W 074°07'0 0.0
2018-Jun-22 05:00N 40°39' W 074°07'0 0.0
2018-Jun-22 04:30N 40°39' W 074°07'0 0.0
2018-Jun-22 03:54N 40°39' W 074°07'0 0.0
2018-Jun-22 03:30N 40°39' W 074°07'0 0.0
2018-Jun-22 03:00N 40°39' W 074°07'0 0.0
2018-Jun-22 02:30N 40°39' W 074°07'0 0.0
2018-Jun-22 02:00N 40°39' W 074°07'0 0.3
2018-Jun-22 01:30N 40°39' W 074°07'  
2018-Jun-19 09:27N 42°17' W 070°29'4 9.0
2018-Jun-19 09:00N 42°21' W 070°29'4 8.8
2018-Jun-19 08:30N 42°25' W 070°28'4 8.8
2018-Jun-19 08:00N 42°30' W 070°28'4 8.7
2018-Jun-19 07:30N 42°34' W 070°28'4 8.8
2018-Jun-19 07:00N 42°39' W 070°27'4 8.6
2018-Jun-19 06:30N 42°43' W 070°29'4 8.6
2018-Jun-19 06:00N 42°47' W 070°27'39 8.2
2018-Jun-19 01:18N 43°24' W 070°11'2 8.2
2018-Jun-19 01:00N 43°26' W 070°10'4 8.4
2018-Jun-19 00:30N 43°30' W 070°08'4 8.0
2018-Jun-19 00:00N 43°34' W 070°09'4 8.7
2018-Jun-18 23:30N 43°37' W 070°12'2 5.0
2018-Jun-18 23:00N 43°39' W 070°14'0 0.0
2018-Jun-18 22:30N 43°39' W 070°14'0 0.0
2018-Jun-18 22:00N 43°39' W 070°14'0 0.0
2018-Jun-18 21:30N 43°39' W 070°14'0 0.0
2018-Jun-18 21:00N 43°39' W 070°14'0 0.0
2018-Jun-18 19:45N 43°39' W 070°14'0 0.0
2018-Jun-18 19:29N 43°39' W 070°14'0 0.0
2018-Jun-18 19:00N 43°39' W 070°14'0 0.0
2018-Jun-18 18:30N 43°39' W 070°14'0 0.0
2018-Jun-18 18:00N 43°39' W 070°14'0 0.0
2018-Jun-18 17:30N 43°39' W 070°14'0 0.0
2018-Jun-18 17:00N 43°39' W 070°14'0 0.0
2018-Jun-18 16:30N 43°39' W 070°14'0 0.0
2018-Jun-18 16:00N 43°39' W 070°14'0 0.0
2018-Jun-18 15:30N 43°39' W 070°14'0 0.0
2018-Jun-18 15:00N 43°39' W 070°14'0 0.0
2018-Jun-18 14:30N 43°39' W 070°14'0 0.0
2018-Jun-18 14:00N 43°39' W 070°14'0 0.0
2018-Jun-18 13:30N 43°39' W 070°14'0 0.0
2018-Jun-18 13:00N 43°39' W 070°14'0 0.0
2018-Jun-18 12:30N 43°39' W 070°14'0 0.0
2018-Jun-18 12:00N 43°39' W 070°14'0 0.0
2018-Jun-18 11:30N 43°39' W 070°14'0 0.0
2018-Jun-18 11:00N 43°39' W 070°14'0 0.0
2018-Jun-18 10:30N 43°39' W 070°14'0 0.0
2018-Jun-18 10:00N 43°39' W 070°14'0 0.0
2018-Jun-18 09:30N 43°39' W 070°14'0 0.0
2018-Jun-18 09:00N 43°39' W 070°14'0 0.0
2018-Jun-18 08:30N 43°39' W 070°14'0 0.0
2018-Jun-18 08:00N 43°39' W 070°14'0 0.0
2018-Jun-18 07:30N 43°39' W 070°14'0 0.0
2018-Jun-18 07:00N 43°39' W 070°14'1 1.8
2018-Jun-18 06:30N 43°39' W 070°13'4 8.1
2018-Jun-18 06:00N 43°36' W 070°10'4 7.9
2018-Jun-18 05:30N 43°32' W 070°08'4 7.9
2018-Jun-18 04:59N 43°28' W 070°09'4 8.0
2018-Jun-18 04:30N 43°24' W 070°10'20 8.3
2018-Jun-18 02:05N 43°05' W 070°16'1 8.4
2018-Jun-18 01:58N 43°04' W 070°16'4 8.4
2018-Jun-18 01:30N 43°00' W 070°18'4 8.4
2018-Jun-18 00:59N 42°56' W 070°19'4 8.1
2018-Jun-18 00:30N 42°52' W 070°20'4 7.8
2018-Jun-18 00:00N 42°48' W 070°22'4 7.9
2018-Jun-17 23:30N 42°44' W 070°23'4 8.2
2018-Jun-17 23:00N 42°40' W 070°24'4 8.2
2018-Jun-17 22:30N 42°36' W 070°25'4 8.4
2018-Jun-17 22:00N 42°32' W 070°25'4 8.5
2018-Jun-17 21:30N 42°28' W 070°25'4 8.5
2018-Jun-17 21:00N 42°24' W 070°26'4 8.4
2018-Jun-17 20:30N 42°19' W 070°26'4 8.5
2018-Jun-17 20:00N 42°15' W 070°26'4 8.1
2018-Jun-17 19:30N 42°11' W 070°26'4 8.0
2018-Jun-17 19:00N 42°07' W 070°26'9 8.1
2018-Jun-17 17:55N 41°58' W 070°27'182 7.5
2018-Jun-16 17:34N 40°34' W 074°02'2 8.9
2018-Jun-16 17:20N 40°36' W 074°03'3 8.5
2018-Jun-16 17:00N 40°39' W 074°04'5 8.4
2018-Jun-16 16:24N 40°39' W 074°10'1 0.2
2018-Jun-16 13:36N 40°39' W 074°11'1 7.4
2018-Jun-16 13:30N 40°39' W 074°10'2 1.8
2018-Jun-16 12:12N 40°39' W 074°07'0 0.0
2018-Jun-16 11:10N 40°39' W 074°07'0 0.1
2018-Jun-16 10:59N 40°39' W 074°07'0 0.0
2018-Jun-16 10:27N 40°39' W 074°07'0 0.0
2018-Jun-16 10:00N 40°39' W 074°07'0 0.0
2018-Jun-16 00:19N 40°39' W 074°07'0 0.5
2018-Jun-16 00:00N 40°39' W 074°07'3 6.0
2018-Jun-15 23:30N 40°39' W 074°11'8 0.9
2018-Jun-15 13:44N 40°34' W 074°02'1 2.4
2018-Jun-15 13:24N 40°35' W 074°02'1 3.1
2018-Jun-15 13:00N 40°36' W 074°03'1 2.4
2018-Jun-15 12:29N 40°37' W 074°03'2 3.3
2018-Jun-15 12:00N 40°39' W 074°03'1 2.1
2018-Jun-15 11:30N 40°40' W 074°02'0 0.2
2018-Jun-15 11:00N 40°40' W 074°02'2 4.2
2018-Jun-15 10:30N 40°41' W 074°00'3 6.3
2018-Jun-15 10:00N 40°44' W 073°58'60 7.5
2018-Jun-15 02:01N 41°06' W 072°44'0 9.5
2018-Jun-15 02:00N 41°06' W 072°44'5 9.7
2018-Jun-15 01:30N 41°07' W 072°38'510.5
2018-Jun-15 01:00N 41°09' W 072°31'610.9
2018-Jun-15 00:30N 41°10' W 072°24'610.0
2018-Jun-14 23:54N 41°12' W 072°16'96 3.8
2018-Jun-13 22:29N 42°16' W 070°40'4 8.4
2018-Jun-13 22:00N 42°18' W 070°44'4 8.5
2018-Jun-13 21:30N 42°21' W 070°48'4 8.1
2018-Jun-13 21:00N 42°23' W 070°53'4 9.0
2018-Jun-13 20:30N 42°20' W 070°58'4 8.3
2018-Jun-13 20:00N 42°22' W 071°03'2 3.4
2018-Jun-13 19:30N 42°23' W 071°01'0 0.4
2018-Jun-13 19:01N 42°24' W 071°01'1 1.9
2018-Jun-13 18:30N 42°23' W 071°02'0 0.8
2018-Jun-13 18:00N 42°23' W 071°03'0 0.0
2018-Jun-13 17:30N 42°23' W 071°03'0 0.0
2018-Jun-13 17:00N 42°23' W 071°03'0 0.0
2018-Jun-13 16:30N 42°23' W 071°03'0 0.0
2018-Jun-13 16:00N 42°23' W 071°03'0 0.0
2018-Jun-13 15:30N 42°23' W 071°03'0 0.0
2018-Jun-13 15:00N 42°23' W 071°03'0 0.0
2018-Jun-13 14:30N 42°23' W 071°03'0 0.0
2018-Jun-13 14:00N 42°23' W 071°03'0 0.0
2018-Jun-13 13:30N 42°23' W 071°03'0 0.5
2018-Jun-13 13:00N 42°23' W 071°03'1 2.5
2018-Jun-13 12:30N 42°24' W 071°01'0 1.0
2018-Jun-13 12:00N 42°23' W 071°01'1 2.7
2018-Jun-13 11:30N 42°22' W 071°03'1 1.9
2018-Jun-13 11:00N 42°22' W 071°02'0 0.0
2018-Jun-13 10:30N 42°22' W 071°02'0 0.1
2018-Jun-13 10:00N 42°22' W 071°02'0 0.0
2018-Jun-13 09:30N 42°22' W 071°02'0 0.1
2018-Jun-13 09:00N 42°22' W 071°02'0 0.0
2018-Jun-13 08:30N 42°22' W 071°02'0 0.0
2018-Jun-13 08:00N 42°22' W 071°02'0 0.0
2018-Jun-13 07:30N 42°22' W 071°02'0 0.0
2018-Jun-13 07:00N 42°22' W 071°02'0 0.0
2018-Jun-13 06:30N 42°22' W 071°02'0 0.0
2018-Jun-13 06:00N 42°22' W 071°02'0 0.0
2018-Jun-13 05:30N 42°22' W 071°02'0 0.0
2018-Jun-13 05:00N 42°22' W 071°02'0 0.0
2018-Jun-13 04:30N 42°22' W 071°02'0 0.0
2018-Jun-13 04:01N 42°22' W 071°02'0 0.1
2018-Jun-13 03:30N 42°22' W 071°02'0 0.0
2018-Jun-13 03:00N 42°22' W 071°02'0 0.0
2018-Jun-13 02:30N 42°22' W 071°02'0 0.0
2018-Jun-13 02:00N 42°22' W 071°02'0 0.0
2018-Jun-13 01:30N 42°22' W 071°02'0 0.0
2018-Jun-13 01:00N 42°22' W 071°02'0 0.0
2018-Jun-13 00:30N 42°22' W 071°02'0 0.0
2018-Jun-13 00:00N 42°22' W 071°02'0 0.0
2018-Jun-12 23:30N 42°22' W 071°02'0 0.1
2018-Jun-12 23:00N 42°22' W 071°02'0 0.1
2018-Jun-12 22:31N 42°22' W 071°02'0 0.0
2018-Jun-12 22:00N 42°22' W 071°02'0 0.0
2018-Jun-12 21:30N 42°22' W 071°02'0 0.0
2018-Jun-12 21:00N 42°22' W 071°02'0 0.1
2018-Jun-12 20:30N 42°22' W 071°02'0 0.1
2018-Jun-12 20:00N 42°22' W 071°02'0 0.0
2018-Jun-12 19:30N 42°22' W 071°02'0 0.0
2018-Jun-12 19:00N 42°22' W 071°02'0 0.0
2018-Jun-12 18:30N 42°22' W 071°02'0 0.0
2018-Jun-12 18:00N 42°22' W 071°02'0 0.0
2018-Jun-12 17:30N 42°22' W 071°02'0 0.0
2018-Jun-12 17:00N 42°22' W 071°02'  

Dump ship's entire track history